Manchester, CT (06041)

5:09 PM EDT on September 25, 2016 (GMT -0400)
GraVan Garden | | Change Station

Elev 292 ft 41.78 °N, 72.51 °W | Updated 12 minutes ago

Clear
Clear
64.0 °F
Feels Like 64.0 °F
N
5.1
Wind Variable Wind from NW

Today
High -- | Low -- °F
--% Chance of Precip.
Yesterday
High -- | Low -- °F
Precip. -- in
Pressure 30.10 in
Visibility 10.0 miles
Clouds Clear
Dew Point 38 °F
Humidity 38%
Rainfall 0.00 in
Snow Depth Not available.
6:41 AM 6:41 PM
Waning Crescent, 25% visible
METAR KHFD 252053Z AUTO 01013G19KT 10SM CLR 19/01 A3010 RMK AO2 SLP193 T01890011 56006 $
Pressure 30.10 in
Visibility 10.0 miles
Clouds Clear
Dew Point 38 °F
Humidity 38%
Rainfall 0.00 in
Snow Depth Not available.
6:41 AM 6:41 PM
Waning Crescent, 25% visible
METAR KHFD 252053Z AUTO 01013G19KT 10SM CLR 19/01 A3010 RMK AO2 SLP193 T01890011 56006 $

10-Day Weather Forecast

Almanac

Astronomy

Sep. 25, 2016 Rise Set
Actual Time
Civil Twilight
Nautical Twilight
Astronomical Twilight
Moon
Length of Visible Light
Length of Day
Tomorrow will be .
, % of the Moon is Illuminated

Today's Extremes

State Highs State Lows

Community

WunderPhotos

Upload Photos

1,941,731 photos uploaded!

WunderBlog® & News

Nearby

Air Quality

  Air Quality AQ Index Pollutant
Not available.

Snow Depth

Station Depth Elevation

Earthquake Activity

City Distance Mag. Time & Date
Minimum magnitude displayed is 2.5.

Coastal Water Temperatures

Place Temperature

Stations

Nearby Weather Stations

Station Location Temp. Windchill Dew Point Humidity Wind Precip. Elev Updated Type
                   

Watches & Warnings

There are currently no watches in effect.